Terminal Aerodrome Forecast
Issued by NWS Blacksburg, VA

Current Version | Previous Version | Graphics & Text | Print | Product List | Glossary On
Versions: 1 2 3 4 5 6 7 8 9 10 11 12 13 14 15 16 17 18 19 20 21 22 23 24 25 26 27 28
000
FTUS41 KRNK 240344 AAA
TAFBLF
TAF AMD
KBLF 240344Z 2404/2424 25006KT P6SM SKC
     FM240900 26004KT 4SM BR SCT120
      TEMPO 2409/2411 1SM BR SCT001
     FM241300 28005KT P6SM SCT025
     FM241700 29008KT P6SM SCT045=

USA.gov is the U.S. government's official web portal to all federal, state and local government web resources and services.